發表時間 文章標題 人氣 留言
2018-05-11 置頂 模型製作 (34) (2)
2018-09-11 KITTY HAWK 1/48 JAS-39 (246) (1)
2018-09-10 G.W.H 長城 1/48 MIG-29 (141) (0)
2018-09-03 HASAGAWA 1/48 A-4M (188) (0)
2018-09-01 KINETIC 1/48 F-16A BLOCK 20 401聯隊 6665 (371) (7)
2018-08-26 HASAGAWA 1/48 F/A-18AC (190) (0)
2018-08-20 1/35 油桶舊化製作 (116) (0)
2017-12-31 1/35 MAZDA K360 三輪車 (115) (2)
2017-12-30 德軍四聯砲地台製作 (80) (1)
2017-12-30 熊本城 (41) (0)
2017-10-17 TAMIYA 1/12 YAMAHA-M1 (206) (1)
2017-10-16 HASAGAWA 1/48 EA-18G (152) (0)
2017-10-16 HASAGAWA 1/48 FA-18D (106) (0)
2017-06-18 TAMIYA F-16CJ (277) (1)
2017-06-03 HASAGAWA 1/48 FA-18C (147) (0)
2017-03-13 TAMIYA 1/48 F-16CJ BLOCK 50 (990) (0)
2017-03-13 R.O.C.AF F-16B 6813改6805 (187) (1)
2017-01-08 1/72 R.O.C.AF F-CK-1A (442) (1)
2016-10-22 RODEN 1/144 R.O.C.Air Force C-119G 3189 (323) (1)
2016-10-19 刀無極+邪天御武 (25) (1)
2016-10-01 KITTY HAWK 1/48 SEPECAT JAGUAR T.2/T.4 美洲虎雙座教練機 (349) (1)
2016-08-29 BRONCO威駿 1/48 CURTISS P-40C(HAWK81-A2)寇帝斯 P-40C飛虎隊 (340) (0)
2016-08-29 KINETIC 1/48 ROCAF F-16A/B 70TH FLYING TIGERS (405) (0)
2016-07-04 1/48 AIRCRAFT WEAPONS:E U.S.AIR-TO-AIR MISSILES & TARGET PODS (119) (1)
2016-05-22 KINETIC 1/48 ROCAF Mirage2000-5EI 機號2016 (410) (3)
2016-04-11 造型村 A-1H SKYRAIDER U.S.NAVY (211) (1)
2016-02-22 閃電霹靂車-凰呀--塗裝整修 (160) (0)
2016-02-01 Hasegawa 1/48 愛知九九艦上爆擊機一一型 (134) (2)
2015-12-20 MIRAGE F.1B-修改 (190) (1)
2015-11-23 HASEGAWA 1/48中島B6N2艦上攻擊機 天山一二型 (313) (0)
2015-10-25 Hasegawa 1/48 P-51D MUSTANG 製作過程 (2073) (1)
2015-10-08 AV-8B進廠整修 (357) (0)
2015-09-14 舊作~~小時候的第一次 (231) (0)
2015-08-22 BANDAI海賊王-千陽號 (230) (0)
2015-08-11 HASEGAWA 1/48 F-4F PHANTOM II (318) (0)
2015-08-08 KINETIC 1/48 ROCAF Mirage2000-5EI 機號2048 (511) (2)
2015-08-07 個人專屬工作室 (178) (3)
2014-07-11 AFV 1/48中華民國海軍500MD/ASW反潛直昇機(機號6901,6912) (393) (1)
2014-06-12 R.O.C.N 500MD (200) (0)
2014-05-11 KINETIC 1/48 ROCAF Mirage2000-5EI (843) (7)
2014-04-24 1/72 R.O.C.A. MIRAGE 2000-5EI (766) (3)
2014-04-18 KITTY HAWK 1/48 SH-2F (625) (0)
2014-04-15 MRC 1/48 H-34 (183) (0)
2014-04-11 TRUMPETER 1/48 HU-16A (315) (2)
2014-04-11 hasegawa 休斯300蛋機 (214) (0)
2013-12-03 搬家完成了,就定位了........ (110) (0)
2013-11-15 搬家了...... (38) (2)
2012-12-14 ACADEMY 1/48 R.O.C.N 500MD/ASW (334) (5)
2012-05-15 中華民國空軍499聯隊44中隊 F-86F 6156 (664) (9)
2012-04-21 KINETIC 1/48 ROCAF 455聯隊F-16B 6813--已售出 (682) (5)
1 23